createdAt,value
2023-02-18T00:00:23.578Z,2.22
2023-02-18T00:02:52.535Z,2.50
2023-02-18T00:05:19.446Z,2.40
2023-02-18T00:07:46.131Z,2.50
2023-02-18T00:10:14.916Z,2.40
2023-02-18T00:12:41.964Z,2.60
2023-02-18T00:15:09.762Z,2.47
2023-02-18T00:17:36.439Z,2.45
2023-02-18T00:20:04.624Z,2.78
2023-02-18T00:22:31.186Z,2.55
2023-02-18T00:24:57.811Z,2.60
2023-02-18T00:27:24.347Z,2.58
2023-02-18T00:29:51.051Z,2.83
2023-02-18T00:32:17.665Z,2.42
2023-02-18T00:34:44.279Z,2.50
2023-02-18T00:37:10.940Z,2.40
2023-02-18T00:39:37.546Z,2.72
2023-02-18T00:42:04.302Z,2.75
2023-02-18T00:44:30.901Z,2.70
2023-02-18T00:46:57.439Z,2.70
2023-02-18T00:49:24.017Z,2.72
2023-02-18T00:51:50.717Z,2.30
2023-02-18T00:54:17.309Z,2.45
2023-02-18T00:56:43.881Z,2.58
2023-02-18T00:59:10.465Z,2.22
2023-02-18T01:01:37.503Z,2.42
2023-02-18T01:04:04.225Z,2.60
2023-02-18T01:06:30.850Z,2.85
2023-02-18T01:08:57.490Z,2.33
2023-02-18T01:11:24.212Z,2.40
2023-02-18T01:13:51.018Z,2.20
2023-02-18T01:16:18.130Z,2.13
2023-02-18T01:18:44.695Z,2.47
2023-02-18T01:21:11.503Z,2.30
2023-02-18T01:23:39.292Z,2.13
2023-02-18T01:26:06.856Z,1.95
2023-02-18T01:28:34.136Z,2.30
2023-02-18T01:31:06.721Z,2.65
2023-02-18T01:33:33.607Z,2.30
2023-02-18T01:36:00.210Z,2.10
2023-02-18T01:38:26.862Z,2.45
2023-02-18T01:40:53.695Z,2.10
2023-02-18T01:43:21.254Z,2.17
2023-02-18T01:45:58.448Z,2.85
2023-02-18T01:48:30.742Z,2.00
2023-02-18T01:51:03.138Z,2.42
2023-02-18T01:54:08.544Z,2.30
2023-02-18T01:56:39.911Z,2.00
2023-02-18T01:59:13.175Z,2.15
2023-02-18T02:01:43.721Z,2.38
2023-02-18T02:06:36.905Z,2.17
2023-02-18T02:09:06.764Z,2.45
2023-02-18T02:12:05.398Z,1.92
2023-02-18T02:14:49.376Z,2.17
2023-02-18T02:17:47.189Z,2.08
2023-02-18T02:20:38.626Z,2.00
2023-02-18T02:23:43.031Z,2.13
2023-02-18T02:26:34.060Z,2.35
2023-02-18T02:29:15.855Z,1.98
2023-02-18T02:32:01.051Z,2.28
2023-02-18T02:34:47.926Z,2.00
2023-02-18T02:37:32.239Z,2.40
2023-02-18T02:40:05.637Z,2.00
2023-02-18T02:42:49.557Z,2.05
2023-02-18T02:45:51.210Z,2.28
2023-02-18T02:48:46.295Z,1.95
2023-02-18T02:51:18.708Z,1.77
2023-02-18T02:53:45.313Z,2.00
2023-02-18T02:56:17.542Z,2.42
2023-02-18T02:58:47.897Z,1.80
2023-02-18T03:01:36.846Z,1.88
2023-02-18T03:04:51.813Z,2.00
2023-02-18T03:07:34.775Z,1.73
2023-02-18T03:10:10.094Z,1.85
2023-02-18T03:13:01.370Z,2.00
2023-02-18T03:15:39.947Z,1.90
2023-02-18T03:18:28.036Z,2.15
2023-02-18T03:21:18.904Z,1.90
2023-02-18T03:23:52.839Z,1.80
2023-02-18T03:26:21.857Z,1.85
2023-02-18T03:28:51.333Z,1.90
2023-02-18T03:31:21.770Z,1.83
2023-02-18T03:33:54.293Z,1.50
2023-02-18T03:36:22.032Z,1.60
2023-02-18T03:39:05.806Z,1.83
2023-02-18T03:41:33.463Z,1.40
2023-02-18T03:44:07.073Z,1.83
2023-02-18T03:46:35.650Z,1.20
2023-02-18T03:49:02.332Z,1.00
2023-02-18T03:51:29.185Z,1.40
2023-02-18T03:53:55.710Z,1.30
2023-02-18T03:56:22.835Z,1.40
2023-02-18T03:58:49.875Z,1.30
2023-02-18T04:01:16.497Z,1.23
2023-02-18T04:03:43.068Z,1.23
2023-02-18T04:06:09.875Z,1.27
2023-02-18T04:08:36.671Z,1.33
2023-02-18T04:11:03.776Z,1.13
2023-02-18T04:13:31.027Z,1.23
2023-02-18T04:15:57.580Z,1.30
2023-02-18T04:18:24.376Z,1.40
2023-02-18T04:20:51.694Z,1.67
2023-02-18T04:23:18.258Z,1.33
2023-02-18T04:25:44.960Z,1.33
2023-02-18T04:28:14.336Z,1.58
2023-02-18T04:30:41.496Z,1.55
2023-02-18T04:33:08.097Z,1.52
2023-02-18T04:35:34.713Z,1.33
2023-02-18T04:38:03.261Z,1.33
2023-02-18T04:40:30.761Z,1.40
2023-02-18T04:43:00.829Z,1.33
2023-02-18T04:45:28.359Z,1.48
2023-02-18T04:47:54.988Z,1.50
2023-02-18T04:50:23.299Z,1.65
2023-02-18T04:52:50.503Z,1.20
2023-02-18T04:55:17.134Z,1.17
2023-02-18T04:57:43.670Z,1.30
2023-02-18T05:00:14.097Z,1.27
2023-02-18T05:02:40.834Z,1.17
2023-02-18T05:05:07.652Z,1.05
2023-02-18T05:07:34.293Z,1.27
2023-02-18T05:10:00.861Z,1.25
2023-02-18T05:12:27.445Z,1.45
2023-02-18T05:14:55.102Z,1.40
2023-02-18T05:17:21.623Z,1.10
2023-02-18T05:19:48.254Z,1.20
2023-02-18T05:22:14.780Z,1.23
2023-02-18T05:24:41.409Z,1.23
2023-02-18T05:27:08.450Z,1.20
2023-02-18T05:29:35.088Z,1.08
2023-02-18T05:32:01.705Z,1.25
2023-02-18T05:34:28.287Z,1.38
2023-02-18T05:36:54.861Z,1.35
2023-02-18T05:39:21.422Z,1.20
2023-02-18T05:41:48.022Z,1.27
2023-02-18T05:44:30.410Z,1.10
2023-02-18T05:47:11.252Z,1.45
2023-02-18T05:49:40.184Z,1.33
2023-02-18T05:52:07.637Z,1.48
2023-02-18T05:54:35.075Z,1.50
2023-02-18T05:57:02.346Z,1.20
2023-02-18T05:59:29.629Z,1.30
2023-02-18T06:01:56.832Z,1.70
2023-02-18T06:04:23.400Z,1.60
2023-02-18T06:06:50.304Z,1.00
2023-02-18T06:09:16.912Z,1.70
2023-02-18T06:11:43.537Z,1.48
2023-02-18T06:14:10.197Z,1.20
2023-02-18T06:16:36.823Z,1.45
2023-02-18T06:19:03.807Z,1.88
2023-02-18T06:21:30.606Z,1.70
2023-02-18T06:23:57.156Z,1.50
2023-02-18T06:26:24.096Z,1.70
2023-02-18T06:28:50.704Z,1.80
2023-02-18T06:31:17.540Z,1.50
2023-02-18T06:33:44.113Z,1.60
2023-02-18T06:36:12.390Z,1.50
2023-02-18T06:38:41.293Z,1.50
2023-02-18T06:41:08.766Z,1.38
2023-02-18T06:43:36.057Z,1.65
2023-02-18T06:46:03.252Z,1.35
2023-02-18T06:48:29.901Z,1.38
2023-02-18T06:50:56.514Z,2.00
2023-02-18T06:53:23.229Z,1.50
2023-02-18T06:55:50.034Z,1.60
2023-02-18T06:58:17.846Z,1.52
2023-02-18T07:00:45.041Z,1.30
2023-02-18T07:03:14.476Z,1.60
2023-02-18T07:05:41.650Z,1.83
2023-02-18T07:08:08.429Z,1.92
2023-02-18T07:10:34.976Z,1.70
2023-02-18T07:13:01.554Z,1.30
2023-02-18T07:15:28.186Z,1.67
2023-02-18T07:17:55.027Z,1.52
2023-02-18T07:20:22.385Z,1.60
2023-02-18T07:22:49.249Z,1.55
2023-02-18T07:25:15.997Z,1.80
2023-02-18T07:27:42.651Z,1.70
2023-02-18T07:30:10.055Z,1.50
2023-02-18T07:32:36.672Z,1.58
2023-02-18T07:35:04.708Z,1.45
2023-02-18T07:37:31.414Z,1.50
2023-02-18T07:39:58.072Z,1.90
2023-02-18T07:42:25.104Z,1.33
2023-02-18T07:44:51.681Z,1.50
2023-02-18T07:47:19.866Z,1.73
2023-02-18T07:49:46.910Z,1.70
2023-02-18T07:52:14.936Z,1.20
2023-02-18T07:54:42.473Z,1.45
2023-02-18T07:57:09.199Z,1.52
2023-02-18T07:59:36.097Z,1.70
2023-02-18T08:02:03.019Z,1.80
2023-02-18T08:04:29.740Z,1.58
2023-02-18T08:06:56.372Z,1.50
2023-02-18T08:09:23.005Z,1.73
2023-02-18T08:11:49.697Z,2.03
2023-02-18T08:14:16.268Z,1.85
2023-02-18T08:16:42.870Z,2.28
2023-02-18T08:19:09.928Z,5.28
2023-02-18T08:21:36.501Z,5.85
2023-02-18T08:24:03.217Z,6.38
2023-02-18T08:26:30.017Z,6.20
2023-02-18T08:28:56.644Z,5.80
2023-02-18T08:31:26.328Z,4.97
2023-02-18T08:33:55.535Z,5.07
2023-02-18T08:36:22.938Z,4.15
2023-02-18T08:38:49.683Z,4.82
2023-02-18T08:41:18.685Z,4.07
2023-02-18T08:43:46.585Z,3.92
2023-02-18T08:46:19.372Z,3.83
2023-02-18T08:49:00.038Z,3.53
2023-02-18T08:51:26.601Z,3.10
2023-02-18T08:53:53.131Z,2.88
2023-02-18T08:56:19.783Z,2.97
2023-02-18T08:58:46.432Z,2.90
2023-02-18T09:01:13.985Z,3.00
2023-02-18T09:03:40.682Z,2.50
2023-02-18T09:06:07.438Z,2.80
2023-02-18T09:08:34.244Z,2.88
2023-02-18T09:11:04.641Z,2.60
2023-02-18T09:13:32.877Z,2.35
2023-02-18T09:16:19.775Z,2.38
2023-02-18T09:18:47.961Z,2.42
2023-02-18T09:21:16.184Z,2.20
2023-02-18T09:23:43.047Z,2.45
2023-02-18T09:26:14.304Z,1.77
2023-02-18T09:28:41.166Z,2.42
2023-02-18T09:31:18.617Z,2.33
2023-02-18T09:33:48.100Z,2.00
2023-02-18T09:36:14.878Z,2.10
2023-02-18T09:38:41.436Z,2.40
2023-02-18T09:41:24.602Z,2.28
2023-02-18T09:43:54.768Z,2.25
2023-02-18T09:46:30.260Z,1.90
2023-02-18T09:48:58.353Z,1.58
2023-02-18T09:51:24.970Z,1.70
2023-02-18T09:53:51.542Z,2.38
2023-02-18T09:56:26.418Z,2.42
2023-02-18T09:58:53.990Z,1.85
2023-02-18T10:01:35.566Z,1.83
2023-02-18T10:04:12.822Z,1.92
2023-02-18T10:06:39.439Z,1.70
2023-02-18T10:09:25.426Z,1.88
2023-02-18T10:11:56.449Z,1.80
2023-02-18T10:14:23.136Z,2.00
2023-02-18T10:16:51.685Z,1.80
2023-02-18T10:19:27.862Z,1.95
2023-02-18T10:21:55.170Z,1.92
2023-02-18T10:24:33.284Z,1.92
2023-02-18T10:27:00.856Z,2.22
2023-02-18T10:29:29.310Z,2.10
2023-02-18T10:32:04.863Z,1.58
2023-02-18T10:34:43.799Z,1.65
2023-02-18T10:37:33.500Z,2.10
2023-02-18T10:40:21.704Z,2.23
2023-02-18T10:43:03.346Z,2.50
2023-02-18T10:45:43.595Z,2.28
2023-02-18T10:48:39.791Z,2.30
2023-02-18T10:51:29.418Z,4.60
2023-02-18T10:53:56.083Z,4.60
2023-02-18T10:56:40.179Z,4.25
2023-02-18T10:59:12.953Z,3.80
2023-02-18T11:01:41.207Z,4.03
2023-02-18T11:04:17.112Z,3.17
2023-02-18T11:06:52.334Z,3.08
2023-02-18T11:09:46.861Z,2.67
2023-02-18T11:12:45.593Z,2.97
2023-02-18T11:15:15.047Z,2.40
2023-02-18T11:17:43.290Z,2.35
2023-02-18T11:20:30.431Z,2.50
2023-02-18T11:23:17.714Z,3.00
2023-02-18T11:26:14.765Z,2.50
2023-02-18T11:28:47.847Z,3.47
2023-02-18T11:31:25.488Z,2.47
2023-02-18T11:33:56.783Z,2.47
2023-02-18T11:36:32.285Z,2.20
2023-02-18T11:39:04.590Z,2.60
2023-02-18T11:41:40.331Z,2.42
2023-02-18T11:44:21.103Z,3.03
2023-02-18T11:47:02.656Z,2.85
2023-02-18T11:49:30.518Z,2.60
2023-02-18T11:52:06.571Z,2.80
2023-02-18T11:54:35.550Z,2.40
2023-02-18T11:57:10.805Z,2.33
2023-02-18T11:59:40.020Z,2.72
2023-02-18T12:02:09.566Z,2.97
2023-02-18T12:05:01.513Z,2.90
2023-02-18T12:07:41.494Z,2.22
2023-02-18T12:10:16.120Z,1.90
2023-02-18T12:13:12.713Z,2.42
2023-02-18T12:15:51.461Z,2.67
2023-02-18T12:18:30.405Z,2.10
2023-02-18T12:21:35.093Z,2.15
2023-02-18T12:24:20.684Z,2.08
2023-02-18T12:27:00.226Z,2.03
2023-02-18T12:29:54.167Z,2.25
2023-02-18T12:32:53.450Z,2.47
2023-02-18T12:35:52.275Z,2.00
2023-02-18T12:38:24.944Z,2.08
2023-02-18T12:41:17.043Z,2.05
2023-02-18T12:44:13.282Z,2.30
2023-02-18T12:46:52.699Z,2.10
2023-02-18T12:49:30.638Z,2.35
2023-02-18T12:52:05.881Z,1.90
2023-02-18T12:54:48.516Z,2.20
2023-02-18T12:57:33.561Z,2.30
2023-02-18T13:00:37.814Z,1.98
2023-02-18T13:03:10.255Z,1.85
2023-02-18T13:05:46.656Z,2.30
2023-02-18T13:08:40.922Z,2.40
2023-02-18T13:11:14.473Z,1.92
2023-02-18T13:13:53.283Z,1.70
2023-02-18T13:16:21.770Z,2.63
2023-02-18T13:19:14.782Z,2.10
2023-02-18T13:21:44.699Z,2.22
2023-02-18T13:24:17.082Z,2.15
2023-02-18T13:26:49.031Z,2.00
2023-02-18T13:29:24.159Z,2.10
2023-02-18T13:32:27.762Z,2.08
2023-02-18T13:35:08.574Z,1.75
2023-02-18T13:38:00.322Z,2.05
2023-02-18T13:40:30.594Z,2.03
2023-02-18T13:43:28.109Z,2.00
2023-02-18T13:46:15.062Z,1.70
2023-02-18T13:48:55.320Z,2.00
2023-02-18T13:51:45.319Z,1.83
2023-02-18T13:54:17.612Z,2.00
2023-02-18T13:56:51.065Z,1.92
2023-02-18T13:59:32.469Z,1.95
2023-02-18T14:02:28.582Z,2.13
2023-02-18T14:04:56.194Z,1.98
2023-02-18T14:07:44.105Z,1.80
2023-02-18T14:10:16.613Z,1.70
2023-02-18T14:13:20.080Z,1.77
2023-02-18T14:16:01.269Z,1.45
2023-02-18T14:18:38.482Z,1.92
2023-02-18T14:21:14.224Z,1.90
2023-02-18T14:23:52.847Z,2.05
2023-02-18T14:26:24.294Z,1.80
2023-02-18T14:28:57.431Z,1.85
2023-02-18T14:31:36.809Z,1.77
2023-02-18T14:34:26.202Z,1.77
2023-02-18T14:37:04.774Z,2.00
2023-02-18T14:39:46.565Z,1.48
2023-02-18T14:42:44.868Z,1.80
2023-02-18T14:45:40.878Z,1.90
2023-02-18T14:48:16.196Z,1.90
2023-02-18T14:50:46.142Z,1.85
2023-02-18T14:53:20.640Z,1.92
2023-02-18T14:55:53.787Z,1.98
2023-02-18T14:58:27.520Z,1.70
2023-02-18T15:00:54.152Z,1.73
2023-02-18T15:03:22.401Z,1.83
2023-02-18T15:05:52.006Z,1.90
2023-02-18T15:08:24.031Z,2.20
2023-02-18T15:11:01.398Z,1.60
2023-02-18T15:13:37.009Z,1.42
2023-02-18T15:16:09.748Z,1.50
2023-02-18T15:18:40.603Z,1.70
2023-02-18T15:21:17.711Z,1.90
2023-02-18T15:23:44.269Z,2.00
2023-02-18T15:26:15.440Z,2.00
2023-02-18T15:28:52.032Z,1.80
2023-02-18T15:31:24.730Z,1.92
2023-02-18T15:33:52.487Z,1.80
2023-02-18T15:36:19.110Z,1.80
2023-02-18T15:38:45.727Z,1.75
2023-02-18T15:41:15.671Z,1.83
2023-02-18T15:43:54.443Z,1.83
2023-02-18T15:46:23.904Z,1.95
2023-02-18T15:48:53.640Z,1.95
2023-02-18T15:51:25.057Z,2.07
2023-02-18T15:53:56.494Z,2.20
2023-02-18T15:56:36.543Z,2.63
2023-02-18T15:59:10.384Z,6.97
2023-02-18T16:01:37.360Z,10.23
2023-02-18T16:04:07.325Z,14.32
2023-02-18T16:06:45.936Z,18.10
2023-02-18T16:09:12.438Z,17.95
2023-02-18T16:11:42.120Z,21.20
2023-02-18T16:14:31.891Z,19.60
2023-02-18T16:17:17.153Z,22.97
2023-02-18T16:20:16.171Z,22.83
2023-02-18T16:22:50.459Z,22.58
2023-02-18T16:25:22.771Z,23.50
2023-02-18T16:27:58.213Z,22.02
2023-02-18T16:30:28.823Z,24.27
2023-02-18T16:32:57.946Z,22.80
2023-02-18T16:35:27.880Z,23.70
2023-02-18T16:37:57.775Z,21.58
2023-02-18T16:40:24.357Z,21.85
2023-02-18T16:42:52.680Z,21.83
2023-02-18T16:45:20.669Z,21.52
2023-02-18T16:47:49.876Z,20.80
2023-02-18T16:50:19.854Z,20.92
2023-02-18T16:52:47.419Z,21.10
2023-02-18T16:55:22.492Z,19.17
2023-02-18T16:57:49.436Z,19.55
2023-02-18T17:00:17.988Z,17.80
2023-02-18T17:02:50.073Z,17.85
2023-02-18T17:05:26.505Z,16.27
2023-02-18T17:07:54.294Z,17.17
2023-02-18T17:10:21.130Z,16.17
2023-02-18T17:12:47.675Z,16.52
2023-02-18T17:15:30.789Z,15.38
2023-02-18T17:17:59.408Z,14.70
2023-02-18T17:20:27.710Z,15.35
2023-02-18T17:22:56.028Z,12.88
2023-02-18T17:25:29.152Z,12.82
2023-02-18T17:27:57.344Z,13.00
2023-02-18T17:30:24.147Z,11.85
2023-02-18T17:32:50.962Z,11.88
2023-02-18T17:35:20.077Z,11.77
2023-02-18T17:37:47.236Z,10.35
2023-02-18T17:40:19.805Z,10.32
2023-02-18T17:42:46.785Z,9.77
2023-02-18T17:45:32.140Z,9.77
2023-02-18T17:48:00.648Z,9.27
2023-02-18T17:50:28.747Z,9.52
2023-02-18T17:52:55.666Z,9.27
2023-02-18T17:55:23.898Z,9.55
2023-02-18T17:57:52.122Z,8.50
2023-02-18T18:00:22.632Z,7.57
2023-02-18T18:05:31.693Z,7.65
2023-02-18T18:07:58.252Z,6.72
2023-02-18T18:10:30.599Z,6.63
2023-02-18T18:12:59.002Z,6.88
2023-02-18T18:15:40.527Z,7.10
2023-02-18T18:18:07.897Z,7.25
2023-02-18T18:20:35.846Z,6.68
2023-02-18T18:23:05.335Z,5.40
2023-02-18T18:25:34.808Z,6.00
2023-02-18T18:28:01.526Z,5.80
2023-02-18T18:30:30.713Z,6.30
2023-02-18T18:32:58.028Z,5.47
2023-02-18T18:35:31.820Z,5.53
2023-02-18T18:37:59.344Z,5.07
2023-02-18T18:40:29.283Z,5.03
2023-02-18T18:42:57.782Z,5.13
2023-02-18T18:45:30.889Z,5.20
2023-02-18T18:47:58.174Z,5.43
2023-02-18T18:50:26.853Z,5.10
2023-02-18T18:52:54.256Z,5.15
2023-02-18T18:55:31.631Z,4.32
2023-02-18T18:57:59.511Z,4.50
2023-02-18T19:00:33.274Z,4.05
2023-02-18T19:03:00.246Z,4.00
2023-02-18T19:05:39.291Z,4.07
2023-02-18T19:08:07.296Z,4.00
2023-02-18T19:10:38.390Z,4.38
2023-02-18T19:13:12.854Z,3.78
2023-02-18T19:15:40.422Z,3.90
2023-02-18T19:18:07.918Z,3.97
2023-02-18T19:20:35.960Z,3.53
2023-02-18T19:23:03.227Z,3.50
2023-02-18T19:25:30.396Z,3.53
2023-02-18T19:27:57.322Z,3.40
2023-02-18T19:30:33.192Z,3.63
2023-02-18T19:33:01.682Z,3.35
2023-02-18T19:35:29.858Z,3.20
2023-02-18T19:37:56.898Z,3.15
2023-02-18T19:40:26.289Z,3.53
2023-02-18T19:42:53.802Z,3.25
2023-02-18T19:45:21.005Z,3.00
2023-02-18T19:47:52.301Z,3.08
2023-02-18T19:50:18.880Z,3.63
2023-02-18T19:52:45.492Z,3.30
2023-02-18T19:55:12.195Z,3.45
2023-02-18T19:57:39.208Z,3.22
2023-02-18T20:00:08.814Z,2.45
2023-02-18T20:02:35.624Z,3.30
2023-02-18T20:05:02.595Z,3.15
2023-02-18T20:07:29.926Z,2.90
2023-02-18T20:09:56.702Z,2.90
2023-02-18T20:12:23.377Z,2.85
2023-02-18T20:14:51.121Z,2.92
2023-02-18T20:17:18.688Z,3.22
2023-02-18T20:19:45.577Z,2.88
2023-02-18T20:22:12.679Z,2.67
2023-02-18T20:24:40.058Z,2.60
2023-02-18T20:27:08.516Z,2.90
2023-02-18T20:29:36.301Z,3.03
2023-02-18T20:32:04.887Z,2.75
2023-02-18T20:34:32.818Z,2.60
2023-02-18T20:36:59.894Z,2.58
2023-02-18T20:39:26.455Z,2.90
2023-02-18T20:41:53.003Z,2.70
2023-02-18T20:44:20.978Z,2.67
2023-02-18T20:46:49.170Z,2.78
2023-02-18T20:49:18.950Z,2.25
2023-02-18T20:51:45.788Z,2.88
2023-02-18T20:54:15.851Z,2.58
2023-02-18T20:56:43.767Z,2.33
2023-02-18T20:59:15.548Z,2.80
2023-02-18T21:01:43.496Z,2.72
2023-02-18T21:04:18.009Z,2.90
2023-02-18T21:06:47.684Z,2.55
2023-02-18T21:09:15.710Z,2.90
2023-02-18T21:11:43.187Z,2.83
2023-02-18T21:14:10.775Z,2.30
2023-02-18T21:16:40.468Z,2.60
2023-02-18T21:19:08.628Z,2.50
2023-02-18T21:21:35.803Z,3.05
2023-02-18T21:24:02.825Z,2.67
2023-02-18T21:26:29.920Z,3.03
2023-02-18T21:28:59.184Z,2.42
2023-02-18T21:31:27.445Z,2.40
2023-02-18T21:33:54.051Z,2.47
2023-02-18T21:36:21.634Z,2.60
2023-02-18T21:38:52.829Z,3.05
2023-02-18T21:41:19.545Z,2.50
2023-02-18T21:43:47.336Z,2.30
2023-02-18T21:46:21.038Z,2.15
2023-02-18T21:49:03.439Z,2.50
2023-02-18T21:51:50.578Z,2.15
2023-02-18T21:54:18.496Z,2.45
2023-02-18T21:56:45.105Z,2.25
2023-02-18T21:59:11.703Z,2.67
2023-02-18T22:01:38.492Z,2.55
2023-02-18T22:04:05.321Z,2.25
2023-02-18T22:06:32.058Z,2.08
2023-02-18T22:09:01.617Z,2.90
2023-02-18T22:11:29.143Z,2.65
2023-02-18T22:13:55.685Z,2.72
2023-02-18T22:16:22.361Z,2.42
2023-02-18T22:18:50.226Z,2.25
2023-02-18T22:21:16.989Z,2.65
2023-02-18T22:23:43.573Z,2.47
2023-02-18T22:26:10.947Z,2.15
2023-02-18T22:28:37.756Z,2.40
2023-02-18T22:31:13.164Z,2.38
2023-02-18T22:33:41.273Z,2.42
2023-02-18T22:36:08.541Z,2.47
2023-02-18T22:38:37.180Z,2.40
2023-02-18T22:41:09.528Z,1.92
2023-02-18T22:43:36.523Z,2.20
2023-02-18T22:46:15.767Z,2.53
2023-02-18T22:48:42.675Z,2.38
2023-02-18T22:51:17.831Z,2.33
2023-02-18T22:53:45.329Z,2.28
2023-02-18T22:56:14.678Z,2.50
2023-02-18T22:58:42.729Z,2.35
2023-02-18T23:01:25.591Z,2.00
2023-02-18T23:03:53.095Z,2.55
2023-02-18T23:06:20.782Z,2.47
2023-02-18T23:08:47.855Z,2.05
2023-02-18T23:11:16.969Z,2.78
2023-02-18T23:13:43.728Z,2.30
2023-02-18T23:16:15.918Z,2.05
2023-02-18T23:18:42.532Z,2.25
2023-02-18T23:21:17.766Z,2.28
2023-02-18T23:23:46.132Z,2.17
2023-02-18T23:26:13.599Z,2.00
2023-02-18T23:28:49.756Z,2.47
2023-02-18T23:31:19.477Z,2.15
2023-02-18T23:33:49.388Z,2.08
2023-02-18T23:36:19.695Z,1.88
2023-02-18T23:38:54.891Z,2.10
2023-02-18T23:41:22.312Z,2.58
2023-02-18T23:43:49.415Z,2.53
2023-02-18T23:46:18.054Z,1.83
2023-02-18T23:48:44.651Z,1.92
2023-02-18T23:51:14.725Z,1.83
2023-02-18T23:53:41.565Z,2.10
2023-02-18T23:56:22.250Z,1.80
